Time;durP1;ratioP1;P1;durP2;ratioP2;P2;SDS_P1;SDS_P2;PMS_P1;PMS_P2;Temp;Humidity;BMP_temperature;BMP_pressure;BME280_temperature;BME280_humidity;BME280_pressure;Samples;Min_cycle;Max_cycle;Signal;HPM_P1;HPM_P2
2021/10/17 00:01:04;;;;;;;10.43;1.77;;;;;;;9.69;61.96;101776.53;10247538;28;20458;-70
2021/10/17 00:06:00;;;;;;;9.15;2.65;;;;;;;9.71;61.91;101770.81;10255907;28;20045;-70
2021/10/17 00:10:57;;;;;;;6.47;1.77;;;;;;;9.67;61.29;101767.81;10261472;28;20573;-69
2021/10/17 00:15:54;;;;;;;7.88;2.00;;;;;;;9.62;61.67;101775.25;10269637;28;20045;-68
2021/10/17 00:20:51;;;;;;;10.27;3.15;;;;;;;9.58;61.85;101777.72;10251123;28;20053;-70
2021/10/17 00:25:48;;;;;;;6.53;1.95;;;;;;;9.59;62.00;101773.09;10265463;28;20045;-70
2021/10/17 00:30:44;;;;;;;11.55;2.50;;;;;;;9.61;62.05;101773.63;10262167;28;20045;-70
2021/10/17 00:35:41;;;;;;;13.55;2.65;;;;;;;9.64;62.45;101759.41;10255646;28;20124;-69
2021/10/17 00:40:37;;;;;;;7.00;2.08;;;;;;;9.70;61.89;101750.06;10257150;28;20103;-70
2021/10/17 00:45:34;;;;;;;7.55;2.03;;;;;;;9.65;61.66;101744.63;10260226;28;20454;-70
2021/10/17 00:50:31;;;;;;;10.75;2.10;;;;;;;9.65;61.66;101747.38;10250037;28;20040;-69
2021/10/17 00:55:29;;;;;;;8.35;2.15;;;;;;;9.66;61.24;101738.91;10261451;28;20918;-70
2021/10/17 01:00:45;;;;;;;5.78;1.60;;;;;;;9.56;60.74;101727.22;10262738;28;20088;-70
2021/10/17 01:05:42;;;;;;;13.18;2.22;;;;;;;9.56;61.33;101727.22;10261896;28;20139;-70
2021/10/17 01:10:39;;;;;;;9.80;2.50;;;;;;;9.57;62.16;101723.41;10259622;28;20053;-69
2021/10/17 01:15:36;;;;;;;8.77;1.90;;;;;;;9.55;61.49;101725.63;10249163;28;20040;-69
2021/10/17 01:20:32;;;;;;;9.85;1.85;;;;;;;9.58;61.79;101725.03;10257195;28;20040;-69
2021/10/17 01:25:29;;;;;;;9.18;2.10;;;;;;;9.57;61.56;101723.41;10256520;28;20049;-69
2021/10/17 01:30:25;;;;;;;14.20;2.55;;;;;;;9.50;62.31;101728.41;10258539;28;20056;-70
2021/10/17 01:35:22;;;;;;;23.48;4.35;;;;;;;9.52;62.28;101720.75;10247805;28;20068;-70
2021/10/17 01:40:19;;;;;;;15.73;2.85;;;;;;;9.52;62.67;101712.56;10262614;28;20041;-69
2021/10/17 01:45:15;;;;;;;12.25;2.20;;;;;;;9.54;62.98;101702.13;10262218;28;20091;-69
2021/10/17 01:50:12;;;;;;;10.23;2.47;;;;;;;9.54;63.58;101707.59;10257613;28;20105;-71
2021/10/17 01:55:09;;;;;;;7.20;2.42;;;;;;;9.46;64.36;101696.19;10250889;28;20069;-68
2021/10/17 02:00:07;;;;;;;15.57;2.83;;;;;;;9.46;65.50;101700.84;10256385;28;20053;-68
2021/10/17 02:05:04;;;;;;;12.23;2.72;;;;;;;9.48;66.68;101704.91;10251613;28;20102;-71
2021/10/17 02:10:00;;;;;;;14.88;3.22;;;;;;;9.41;66.82;101684.50;10245415;28;20163;-69
2021/10/17 02:14:57;;;;;;;11.90;3.03;;;;;;;9.44;67.30;101682.00;10256402;28;20094;-68
2021/10/17 02:19:54;;;;;;;9.48;3.60;;;;;;;9.42;67.03;101689.69;10248639;28;20057;-68
2021/10/17 02:24:50;;;;;;;13.45;3.20;;;;;;;9.35;68.25;101677.47;10253259;28;20782;-70
2021/10/17 02:29:47;;;;;;;15.35;3.65;;;;;;;9.31;67.83;101679.97;10250565;28;20126;-69
2021/10/17 02:34:44;;;;;;;14.60;3.75;;;;;;;9.40;68.14;101680.97;10259764;28;20131;-69
2021/10/17 02:39:40;;;;;;;13.05;3.28;;;;;;;9.31;68.10;101681.88;10216724;28;20076;-69
2021/10/17 02:44:37;;;;;;;13.18;3.40;;;;;;;9.33;68.32;101669.56;10253977;28;20474;-70
2021/10/17 02:49:33;;;;;;;13.88;3.70;;;;;;;9.23;68.44;101686.00;10257253;28;20072;-68
2021/10/17 02:54:30;;;;;;;9.30;3.38;;;;;;;9.34;69.28;101665.72;10267876;28;20052;-67
2021/10/17 02:59:26;;;;;;;11.68;3.65;;;;;;;9.34;69.29;101676.66;10260851;28;20103;-70
2021/10/17 03:04:23;;;;;;;13.88;3.67;;;;;;;9.27;70.37;101676.97;10254126;28;20041;-69
2021/10/17 03:09:19;;;;;;;12.27;3.63;;;;;;;9.30;71.62;101670.13;10251918;28;20750;-68
2021/10/17 03:14:16;;;;;;;10.65;4.00;;;;;;;9.18;72.84;101666.97;10260550;28;20075;-67
2021/10/17 03:19:13;;;;;;;12.98;3.85;;;;;;;9.20;72.75;101670.22;10256251;28;20072;-70
2021/10/17 03:24:09;;;;;;;13.98;3.95;;;;;;;9.15;73.36;101679.25;10262523;28;20065;-69
2021/10/17 03:29:06;;;;;;;12.07;4.15;;;;;;;9.06;73.63;101681.78;10236348;28;20132;-68
2021/10/17 03:34:02;;;;;;;11.48;3.45;;;;;;;9.17;73.25;101676.25;10258350;28;20045;-69
2021/10/17 03:38:59;;;;;;;11.90;3.92;;;;;;;9.16;73.40;101669.16;10259772;28;20041;-68
2021/10/17 03:43:55;;;;;;;13.27;4.22;;;;;;;9.14;73.17;101682.25;10264914;28;20037;-70
2021/10/17 03:48:52;;;;;;;13.07;4.35;;;;;;;9.09;73.96;101671.41;10261455;28;20068;-70
2021/10/17 03:53:48;;;;;;;17.48;4.05;;;;;;;9.03;73.27;101676.91;10264734;28;20484;-69
2021/10/17 03:58:45;;;;;;;16.60;4.85;;;;;;;9.09;73.55;101674.13;10263115;28;21190;-70
2021/10/17 04:03:41;;;;;;;12.82;4.05;;;;;;;9.12;73.39;101679.00;10268794;28;20072;-70
2021/10/17 04:08:39;;;;;;;14.40;4.05;;;;;;;9.10;73.88;101686.66;10261704;28;20087;-67
2021/10/17 04:13:35;;;;;;;12.13;3.70;;;;;;;9.08;74.18;101684.22;10263394;28;20102;-68
2021/10/17 04:18:32;;;;;;;13.90;3.80;;;;;;;9.01;74.65;101679.09;10253319;28;20104;-70
2021/10/17 04:23:29;;;;;;;13.73;4.03;;;;;;;8.92;74.64;101680.78;10263305;28;20045;-69
2021/10/17 04:28:25;;;;;;;18.35;4.90;;;;;;;8.96;74.94;101681.06;10269390;28;20091;-69
2021/10/17 04:33:22;;;;;;;15.48;4.43;;;;;;;8.98;75.44;101685.13;10263306;28;20038;-70
2021/10/17 04:38:18;;;;;;;14.82;4.35;;;;;;;9.05;75.14;101696.53;10263930;28;20098;-69
2021/10/17 04:43:15;;;;;;;10.77;4.68;;;;;;;9.08;74.74;101677.97;10259738;28;20079;-69
2021/10/17 04:48:12;;;;;;;15.52;5.00;;;;;;;9.12;75.11;101684.47;10256088;28;20047;-70
2021/10/17 04:53:09;;;;;;;14.30;4.93;;;;;;;9.11;74.95;101688.31;10265162;28;20069;-70
2021/10/17 04:58:06;;;;;;;12.57;4.28;;;;;;;9.14;75.49;101693.19;10256656;28;20041;-69
2021/10/17 05:03:02;;;;;;;15.68;5.38;;;;;;;9.11;75.29;101688.31;10249611;28;20041;-69
2021/10/17 05:08:00;;;;;;;11.55;4.70;;;;;;;9.09;75.20;101694.03;10253473;28;20042;-68
2021/10/17 05:12:58;;;;;;;17.73;5.28;;;;;;;9.06;75.89;101689.97;10246009;28;20040;-67
2021/10/17 05:17:55;;;;;;;13.52;4.80;;;;;;;9.03;76.16;101690.53;10250726;28;20077;-68
2021/10/17 05:22:51;;;;;;;16.00;4.43;;;;;;;9.16;75.94;101689.06;10255879;28;20130;-67
2021/10/17 05:27:47;;;;;;;17.58;4.80;;;;;;;9.17;76.53;101687.97;10263704;28;20503;-69
2021/10/17 05:32:44;;;;;;;12.45;4.45;;;;;;;9.16;76.36;101701.91;10246900;28;20080;-71
2021/10/17 05:37:40;;;;;;;15.50;5.90;;;;;;;9.19;76.41;101706.78;10260205;28;20049;-70
2021/10/17 05:42:37;;;;;;;18.20;4.70;;;;;;;9.18;76.54;101705.16;10250482;28;20110;-69
2021/10/17 05:47:34;;;;;;;14.57;5.13;;;;;;;9.24;76.78;101721.22;10266223;28;20044;-71
2021/10/17 05:52:30;;;;;;;13.23;4.35;;;;;;;9.25;76.97;101719.28;10255231;28;20137;-69
2021/10/17 05:57:27;;;;;;;15.10;6.00;;;;;;;9.27;77.05;101725.28;10259819;28;20469;-69
2021/10/17 06:02:23;;;;;;;13.82;4.85;;;;;;;9.20;77.49;101730.25;10256422;28;20095;-70
2021/10/17 06:07:21;;;;;;;16.08;4.82;;;;;;;9.24;77.43;101731.31;10253587;28;20044;-68
2021/10/17 06:12:18;;;;;;;17.73;5.88;;;;;;;9.34;77.50;101741.34;10258389;28;20044;-69
2021/10/17 06:17:15;;;;;;;14.68;5.78;;;;;;;9.30;77.29;101749.28;10253436;28;20094;-70
2021/10/17 06:22:12;;;;;;;16.17;5.03;;;;;;;9.38;77.93;101742.41;10259794;28;20080;-70
2021/10/17 06:27:08;;;;;;;16.92;5.32;;;;;;;9.44;77.38;101733.88;10251663;28;20140;-71
2021/10/17 06:32:05;;;;;;;20.40;6.20;;;;;;;9.48;77.70;101737.66;10254111;28;20079;-70
2021/10/17 06:37:02;;;;;;;14.52;5.05;;;;;;;9.53;77.27;101744.19;10262658;28;20033;-70
2021/10/17 06:41:58;;;;;;;15.27;5.45;;;;;;;9.54;77.02;101743.09;10259678;28;20099;-68
2021/10/17 06:46:55;;;;;;;14.68;6.63;;;;;;;9.53;77.74;101753.19;10263079;28;20099;-69
2021/10/17 06:51:51;;;;;;;12.07;5.10;;;;;;;9.51;77.79;101757.31;10258270;28;20041;-70
2021/10/17 06:56:48;;;;;;;16.98;5.57;;;;;;;9.56;78.02;101760.84;10250207;28;20487;-70
2021/10/17 07:01:45;;;;;;;16.48;5.53;;;;;;;9.55;77.65;101748.28;10260739;28;20145;-68
2021/10/17 07:06:42;;;;;;;13.95;5.82;;;;;;;9.55;78.16;101758.38;10259155;28;20160;-68
2021/10/17 07:11:38;;;;;;;16.20;6.45;;;;;;;9.52;78.12;101764.41;10271996;28;20048;-72
2021/10/17 07:16:35;;;;;;;13.50;6.43;;;;;;;9.54;78.72;101756.72;10263257;28;20091;-72
2021/10/17 07:21:31;;;;;;;18.80;7.35;;;;;;;9.48;79.56;101759.50;10263479;28;20049;-73
2021/10/17 07:26:28;;;;;;;16.05;5.97;;;;;;;9.58;79.00;101753.16;10262863;28;20075;-71
2021/10/17 07:31:24;;;;;;;22.65;6.68;;;;;;;9.63;79.22;101750.41;10242407;28;20061;-71
2021/10/17 07:36:21;;;;;;;17.00;6.82;;;;;;;9.67;78.82;101750.63;10256184;28;20235;-71
2021/10/17 07:41:17;;;;;;;15.15;6.75;;;;;;;9.74;78.95;101751.09;10259534;28;20526;-70
2021/10/17 07:46:14;;;;;;;16.23;6.70;;;;;;;9.78;79.06;101757.63;10271160;28;20503;-70
2021/10/17 07:51:11;;;;;;;13.88;6.95;;;;;;;9.83;78.95;101760.31;10265331;28;20042;-71
2021/10/17 07:56:07;;;;;;;19.02;6.78;;;;;;;9.80;78.52;101788.22;10272408;28;20110;-71
2021/10/17 08:01:05;;;;;;;25.95;7.30;;;;;;;9.82;79.27;101786.00;10265194;28;20139;-73
2021/10/17 08:06:01;;;;;;;17.98;7.00;;;;;;;9.86;79.00;101780.78;10268539;28;20132;-73
2021/10/17 08:10:58;;;;;;;19.27;7.63;;;;;;;9.82;79.23;101786.00;10271959;28;20631;-73
2021/10/17 08:15:55;;;;;;;16.65;7.45;;;;;;;9.77;79.57;101783.31;10272476;28;20085;-74
2021/10/17 08:20:52;;;;;;;17.58;7.30;;;;;;;9.84;79.96;101782.97;10261110;28;20739;-74
2021/10/17 08:25:49;;;;;;;19.83;7.78;;;;;;;9.96;79.63;101777.16;10272882;28;20057;-74
2021/10/17 08:30:48;;;;;;;18.30;7.97;;;;;;;10.05;78.96;101778.16;10259860;28;20667;-73
2021/10/17 08:35:45;;;;;;;15.93;7.95;;;;;;;10.00;78.92;101786.38;10249585;28;20072;-72
2021/10/17 08:40:41;;;;;;;16.67;7.82;;;;;;;9.98;79.87;101783.13;10239040;28;20049;-73
2021/10/17 08:45:38;;;;;;;19.92;8.48;;;;;;;9.84;81.43;101805.66;10243483;28;20080;-72
2021/10/17 08:50:35;;;;;;;18.55;9.18;;;;;;;9.77;83.89;101810.63;10235330;28;20548;-71
2021/10/17 08:55:32;;;;;;;21.23;10.30;;;;;;;9.64;85.63;101800.34;10251816;28;20209;-72
2021/10/17 09:00:34;;;;;;;26.15;10.30;;;;;;;9.58;87.19;101806.94;10240828;28;20591;-72
2021/10/17 09:05:39;;;;;;;25.38;10.15;;;;;;;9.61;88.36;101806.41;10248803;28;20049;-73
2021/10/17 09:10:37;;;;;;;26.90;10.40;;;;;;;9.68;87.10;101801.44;10239332;28;20049;-74
2021/10/17 09:15:33;;;;;;;28.30;10.27;;;;;;;9.63;87.97;101804.16;10244606;28;20411;-73
2021/10/17 09:20:32;;;;;;;26.00;11.60;;;;;;;9.76;86.95;101814.47;10236035;28;20132;-72
2021/10/17 09:25:33;;;;;;;19.27;10.52;;;;;;;9.78;86.68;101795.88;10243506;28;20579;-73
2021/10/17 09:30:30;;;;;;;28.38;11.27;;;;;;;9.72;86.04;101807.94;10246171;28;20488;-72
2021/10/17 09:35:30;;;;;;;26.85;11.88;;;;;;;9.71;86.28;101800.84;10256091;28;20376;-73
2021/10/17 09:40:28;;;;;;;20.55;10.80;;;;;;;9.63;87.30;101798.72;10256038;28;20072;-71
2021/10/17 09:45:26;;;;;;;21.48;11.10;;;;;;;9.78;87.00;101805.97;10255582;28;20049;-72
2021/10/17 09:50:23;;;;;;;22.73;10.55;;;;;;;9.93;87.33;101807.75;10254753;28;20135;-72
2021/10/17 09:55:20;;;;;;;24.27;10.95;;;;;;;10.03;87.05;101796.75;10253038;28;20084;-72
2021/10/17 10:00:17;;;;;;;22.02;11.18;;;;;;;10.14;86.20;101803.72;10260597;28;20160;-72
2021/10/17 10:05:16;;;;;;;22.13;10.43;;;;;;;10.18;86.26;101815.72;10265339;28;20106;-71
2021/10/17 10:10:14;;;;;;;19.80;9.32;;;;;;;10.21;85.66;101809.69;10264541;28;20079;-72
2021/10/17 10:15:11;;;;;;;28.77;10.80;;;;;;;10.26;85.63;101798.72;10251610;28;20049;-72
2021/10/17 10:20:10;;;;;;;20.45;9.50;;;;;;;10.25;84.41;101810.72;10261618;28;20049;-72
2021/10/17 10:25:07;;;;;;;25.13;9.98;;;;;;;10.34;83.74;101807.41;10246665;28;20073;-72
2021/10/17 10:30:20;;;;;;;25.73;10.50;;;;;;;10.33;83.57;101803.88;10256454;28;20049;-72
2021/10/17 10:35:21;;;;;;;20.43;9.13;;;;;;;10.33;82.50;101812.06;10254196;28;20053;-73
2021/10/17 10:40:18;;;;;;;19.98;9.98;;;;;;;10.44;82.75;101823.69;10254802;28;20477;-73
2021/10/17 10:45:37;;;;;;;23.80;9.88;;;;;;;10.49;83.25;101823.66;10257791;28;20484;-73
2021/10/17 10:50:35;;;;;;;18.42;9.82;;;;;;;10.54;82.79;101823.59;10267458;28;20091;-72
2021/10/17 10:55:50;;;;;;;21.60;8.85;;;;;;;10.60;82.86;101816.13;10263385;28;20040;-73
2021/10/17 11:00:47;;;;;;;22.20;9.85;;;;;;;10.63;82.52;101810.06;10264499;28;20049;-72
2021/10/17 11:06:04;;;;;;;19.63;9.00;;;;;;;10.67;82.36;101811.94;10262734;28;20049;-73
2021/10/17 11:11:00;;;;;;;20.63;9.45;;;;;;;10.72;82.06;101814.63;10262124;28;20049;-73
2021/10/17 11:15:57;;;;;;;24.23;9.18;;;;;;;10.74;81.75;101817.91;10270003;28;20045;-73
2021/10/17 11:20:54;;;;;;;20.85;7.60;;;;;;;10.79;81.19;101819.75;10264076;28;20440;-73
2021/10/17 11:25:59;;;;;;;17.23;7.80;;;;;;;10.83;81.08;101826.25;10265729;28;20094;-73
2021/10/17 11:31:09;;;;;;;22.83;8.52;;;;;;;10.76;80.76;101819.50;10269770;28;20505;-73
2021/10/17 11:36:08;;;;;;;21.15;8.82;;;;;;;10.90;81.53;101826.72;10268140;28;20065;-73
2021/10/17 11:41:11;;;;;;;20.40;9.15;;;;;;;10.87;81.34;101826.50;10261551;28;20041;-74
2021/10/17 11:46:19;;;;;;;15.97;8.43;;;;;;;10.98;80.64;101814.31;10271721;28;20087;-73
2021/10/17 11:51:16;;;;;;;26.20;9.07;;;;;;;10.97;81.02;101812.66;10271469;28;20049;-72
2021/10/17 11:56:15;;;;;;;21.48;9.23;;;;;;;11.05;80.46;101820.25;10255391;28;20414;-74
2021/10/17 12:01:15;;;;;;;18.83;8.73;;;;;;;10.97;80.38;101814.59;10257066;28;20056;-75
2021/10/17 12:06:14;;;;;;;22.63;9.57;;;;;;;11.04;80.46;101810.38;10270736;28;20122;-72
2021/10/17 12:11:12;;;;;;;24.20;8.40;;;;;;;11.08;80.79;101810.63;10258394;28;20053;-73
2021/10/17 12:16:11;;;;;;;17.42;8.68;;;;;;;11.10;80.89;101803.75;10257151;28;20435;-74
2021/10/17 12:21:08;;;;;;;20.33;8.35;;;;;;;11.16;81.74;101808.06;10259924;28;20091;-74
2021/10/17 12:26:06;;;;;;;18.05;8.43;;;;;;;11.06;80.95;101802.69;10265547;28;20041;-72
2021/10/17 12:31:03;;;;;;;22.17;8.80;;;;;;;11.12;81.38;101803.47;10270495;28;20068;-72
2021/10/17 12:36:02;;;;;;;24.33;8.68;;;;;;;11.17;81.29;101808.84;10267893;28;20098;-73
2021/10/17 12:41:04;;;;;;;21.50;9.20;;;;;;;11.22;81.03;101805.22;10267742;28;20103;-73
2021/10/17 12:46:21;;;;;;;18.35;8.73;;;;;;;11.20;81.05;101812.94;10260660;28;20049;-73
2021/10/17 12:51:40;;;;;;;16.80;8.82;;;;;;;11.18;80.31;101809.66;10254701;28;20041;-73
2021/10/17 12:56:42;;;;;;;22.98;8.55;;;;;;;11.15;80.94;101806.41;10247008;28;20045;-73
2021/10/17 13:02:16;;;;;;;22.48;8.68;;;;;;;11.18;80.07;101804.19;10256599;28;20522;-73
2021/10/17 13:07:31;;;;;;;17.73;8.23;;;;;;;11.23;80.49;101795.91;10197644;28;20045;-73
2021/10/17 13:12:41;;;;;;;17.55;8.32;;;;;;;11.24;79.91;101806.56;10252412;28;20072;-72
2021/10/17 13:17:40;;;;;;;22.20;7.90;;;;;;;11.29;79.57;101805.69;10259226;28;20046;-73
2021/10/17 13:22:41;;;;;;;17.25;8.50;;;;;;;11.31;79.82;101808.94;10258446;28;20121;-72
2021/10/17 13:27:38;;;;;;;18.65;8.55;;;;;;;11.27;79.38;101802.41;10252763;28;20072;-72
2021/10/17 13:32:35;;;;;;;18.42;8.57;;;;;;;11.39;79.62;101800.03;10255427;28;20049;-70
2021/10/17 13:37:37;;;;;;;20.15;7.97;;;;;;;11.51;79.67;101803.16;10265916;28;20045;-72
2021/10/17 13:42:34;;;;;;;25.98;10.45;;;;;;;11.49;78.56;101805.38;10253732;28;20423;-72
2021/10/17 13:47:30;;;;;;;17.00;7.20;;;;;;;11.51;78.51;101805.91;10261088;28;20045;-72
2021/10/17 13:52:27;;;;;;;19.38;7.65;;;;;;;11.43;77.92;101811.22;10255461;28;20269;-72
2021/10/17 13:57:23;;;;;;;15.20;7.60;;;;;;;11.38;78.98;101814.84;10258135;28;20738;-71
2021/10/17 14:02:20;;;;;;;15.90;8.68;;;;;;;11.31;78.92;101817.16;10264366;28;20045;-71
2021/10/17 14:07:16;;;;;;;20.85;7.80;;;;;;;11.40;79.57;101818.13;10262051;28;20053;-72
2021/10/17 14:12:14;;;;;;;18.15;7.63;;;;;;;11.42;78.64;101815.91;10249910;28;20076;-71
2021/10/17 14:17:10;;;;;;;17.85;8.50;;;;;;;11.42;78.37;101810.41;10240808;28;20076;-72
2021/10/17 14:22:08;;;;;;;23.80;8.10;;;;;;;11.50;79.70;101817.13;10254224;28;20041;-71
2021/10/17 14:27:05;;;;;;;16.80;8.10;;;;;;;11.48;78.76;101822.09;10256530;28;20084;-71
2021/10/17 14:32:01;;;;;;;22.55;7.70;;;;;;;11.52;79.02;101821.22;10249341;28;20072;-71
2021/10/17 14:36:58;;;;;;;14.38;7.13;;;;;;;11.53;78.91;101825.59;10256453;28;20045;-72
2021/10/17 14:41:57;;;;;;;19.67;8.07;;;;;;;11.52;78.38;101823.13;10256732;28;20107;-72
2021/10/17 14:46:53;;;;;;;17.17;7.30;;;;;;;11.49;78.29;101816.34;10243985;28;20137;-70
2021/10/17 14:51:50;;;;;;;18.17;9.05;;;;;;;11.48;78.18;101820.16;10258067;28;20057;-72
2021/10/17 14:56:46;;;;;;;17.63;7.68;;;;;;;11.45;78.58;101820.78;10260991;28;20080;-71
2021/10/17 15:01:42;;;;;;;18.35;7.75;;;;;;;11.44;77.84;101819.16;10253736;28;20163;-72
2021/10/17 15:06:39;;;;;;;14.65;7.60;;;;;;;11.42;77.20;101821.38;10257484;28;20049;-72
2021/10/17 15:11:35;;;;;;;16.08;7.55;;;;;;;11.42;76.99;101829.59;10257985;28;20052;-70
2021/10/17 15:16:34;;;;;;;22.70;9.30;;;;;;;11.43;77.04;101825.72;10263092;28;20138;-72
2021/10/17 15:21:30;;;;;;;16.65;7.63;;;;;;;11.43;76.86;101833.94;10244306;28;20057;-71
2021/10/17 15:26:27;;;;;;;19.25;7.68;;;;;;;11.46;76.51;101833.34;10244807;28;20502;-71
2021/10/17 15:31:24;;;;;;;16.98;6.57;;;;;;;11.45;76.32;101826.25;10265058;28;20079;-72
2021/10/17 15:36:20;;;;;;;18.67;7.85;;;;;;;11.41;76.01;101841.63;10260373;28;20440;-71
2021/10/17 15:41:17;;;;;;;13.70;6.80;;;;;;;11.40;76.13;101839.22;10256958;28;20076;-72
2021/10/17 15:46:13;;;;;;;16.30;7.20;;;;;;;11.39;76.18;101843.84;10266664;28;20049;-71
2021/10/17 15:51:10;;;;;;;20.50;7.68;;;;;;;11.42;75.76;101848.75;10248748;28;20174;-72
2021/10/17 15:56:06;;;;;;;14.70;6.57;;;;;;;11.46;76.02;101849.78;10261060;28;20084;-72
2021/10/17 16:01:03;;;;;;;14.32;7.03;;;;;;;11.46;75.37;101855.25;10257059;28;20080;-73
2021/10/17 16:05:59;;;;;;;15.48;6.68;;;;;;;11.47;74.77;101845.94;10270972;28;20088;-74
2021/10/17 16:10:58;;;;;;;15.60;6.38;;;;;;;11.51;75.04;101863.41;10265322;28;20041;-73
2021/10/17 16:15:54;;;;;;;11.57;6.50;;;;;;;11.48;73.35;101866.72;10263371;28;20080;-73
2021/10/17 16:20:51;;;;;;;16.58;5.78;;;;;;;11.41;72.41;101874.50;10260005;28;20052;-73
2021/10/17 16:25:47;;;;;;;14.70;4.85;;;;;;;11.39;72.28;101879.44;10264728;28;20060;-73
2021/10/17 16:31:06;;;;;;;12.02;4.88;;;;;;;11.35;71.72;101870.22;10267400;28;20037;-74
2021/10/17 16:36:01;;;;;;;13.02;5.00;;;;;;;11.30;71.95;101881.22;10248132;28;20084;-74
2021/10/17 16:41:00;;;;;;;12.07;5.55;;;;;;;11.39;72.25;101882.19;10254205;28;20084;-74
2021/10/17 16:45:57;;;;;;;14.23;5.85;;;;;;;11.33;71.80;101877.91;10265416;28;20619;-73
2021/10/17 16:50:54;;;;;;;13.90;6.05;;;;;;;11.36;72.60;101888.25;10266485;28;20445;-74
2021/10/17 16:55:51;;;;;;;11.60;6.35;;;;;;;11.41;72.66;101882.72;10265651;28;20041;-71
2021/10/17 17:00:47;;;;;;;13.15;5.40;;;;;;;11.40;71.56;101883.03;10256588;28;20072;-72
2021/10/17 17:05:44;;;;;;;16.15;6.00;;;;;;;11.40;71.32;101886.56;10261768;28;20064;-74
2021/10/17 17:10:40;;;;;;;15.65;5.60;;;;;;;11.39;71.46;101882.19;10257349;28;20068;-73
2021/10/17 17:15:37;;;;;;;10.75;5.55;;;;;;;11.35;71.79;101886.66;10253911;28;20044;-73
2021/10/17 17:20:34;;;;;;;15.48;6.50;;;;;;;11.31;71.18;101882.88;10262558;28;20040;-73
2021/10/17 17:25:30;;;;;;;12.00;5.13;;;;;;;11.36;71.65;101888.25;10266963;28;20072;-73
2021/10/17 17:30:27;;;;;;;15.95;6.07;;;;;;;11.34;71.09;101895.97;10250222;28;20418;-73
2021/10/17 17:35:25;;;;;;;15.45;5.90;;;;;;;11.36;70.81;101899.22;10260179;28;20075;-73
2021/10/17 17:40:21;;;;;;;17.65;5.65;;;;;;;11.32;70.61;101898.97;10263730;28;20049;-73
2021/10/17 17:45:18;;;;;;;14.02;5.45;;;;;;;11.33;70.36;101906.09;10254870;28;20449;-73
2021/10/17 17:50:18;;;;;;;12.57;6.22;;;;;;;11.32;69.94;101909.94;10268047;28;20235;-71
2021/10/17 17:55:17;;;;;;;16.25;6.57;;;;;;;11.40;70.47;101913.97;10260164;28;20448;-71
2021/10/17 18:00:16;;;;;;;15.65;6.03;;;;;;;11.38;69.52;101916.16;10264325;28;20045;-73
2021/10/17 18:05:16;;;;;;;19.88;6.22;;;;;;;11.28;70.43;101924.50;10264299;28;20394;-73
2021/10/17 18:10:15;;;;;;;17.90;7.35;;;;;;;11.14;73.38;101925.22;10258434;28;20898;-73
2021/10/17 18:15:14;;;;;;;18.15;7.22;;;;;;;11.08;75.69;101926.38;10261193;28;20045;-73
2021/10/17 18:20:10;;;;;;;16.70;7.28;;;;;;;11.05;75.57;101916.03;10261879;28;20126;-72
2021/10/17 18:25:07;;;;;;;13.88;6.95;;;;;;;10.99;77.05;101906.25;10259176;28;20148;-74
2021/10/17 18:30:04;;;;;;;12.18;6.82;;;;;;;11.03;77.21;101911.97;10256884;28;20182;-73
2021/10/17 18:35:00;;;;;;;18.13;7.85;;;;;;;11.05;76.84;101916.03;10257148;28;20080;-72
2021/10/17 18:39:57;;;;;;;14.68;7.40;;;;;;;11.11;76.74;101914.84;10249413;28;20475;-73
2021/10/17 18:44:53;;;;;;;13.93;6.72;;;;;;;11.07;75.15;101911.09;10262418;28;20085;-73
2021/10/17 18:49:50;;;;;;;13.27;6.85;;;;;;;11.09;73.75;101916.25;10255616;28;20075;-73
2021/10/17 18:54:46;;;;;;;11.80;6.78;;;;;;;11.09;72.85;101911.59;10263332;28;20588;-72
2021/10/17 18:59:43;;;;;;;16.73;6.65;;;;;;;11.08;72.84;101915.44;10254603;28;20540;-74
2021/10/17 19:04:43;;;;;;;17.00;7.20;;;;;;;11.02;71.44;101919.34;10240160;28;20092;-72
2021/10/17 19:09:40;;;;;;;15.63;7.18;;;;;;;10.99;72.16;101921.84;10260716;28;20058;-72
2021/10/17 19:14:36;;;;;;;16.90;7.30;;;;;;;10.89;72.57;101906.38;10252692;28;20123;-70
2021/10/17 19:19:33;;;;;;;18.85;7.25;;;;;;;10.91;73.96;101920.59;10272344;28;20090;-70
2021/10/17 19:24:29;;;;;;;16.35;7.90;;;;;;;10.94;73.66;101925.47;10272905;28;20102;-70
2021/10/17 19:29:26;;;;;;;17.58;7.75;;;;;;;10.98;73.06;101932.00;10269950;28;20132;-71
2021/10/17 19:34:22;;;;;;;20.00;7.75;;;;;;;10.89;73.39;101933.72;10267093;28;20069;-69
2021/10/17 19:39:19;;;;;;;15.13;7.10;;;;;;;10.89;73.39;101941.94;10263195;28;20049;-69
2021/10/17 19:44:21;;;;;;;17.55;8.63;;;;;;;10.95;73.66;101941.59;10276507;28;20052;-69
2021/10/17 19:49:17;;;;;;;16.42;8.77;;;;;;;10.95;73.53;101943.50;10263745;28;20045;-70
2021/10/17 19:54:14;;;;;;;19.40;8.25;;;;;;;10.92;72.89;101955.03;10266021;28;20081;-69
2021/10/17 19:59:10;;;;;;;16.20;7.57;;;;;;;10.90;73.57;101963.53;10259431;28;20041;-69
2021/10/17 20:04:07;;;;;;;13.43;6.88;;;;;;;10.84;75.01;101963.88;10265027;28;20580;-70
2021/10/17 20:09:04;;;;;;;17.77;8.05;;;;;;;10.83;76.21;101973.19;10273120;28;20098;-70
2021/10/17 20:14:01;;;;;;;17.90;8.77;;;;;;;10.72;77.96;101976.03;10256423;28;20084;-70
2021/10/17 20:18:59;;;;;;;17.55;8.77;;;;;;;10.52;79.52;101973.47;10248296;28;20049;-69
2021/10/17 20:23:55;;;;;;;23.85;10.15;;;;;;;10.47;80.55;101970.78;10262192;28;20081;-71
2021/10/17 20:28:52;;;;;;;15.68;9.55;;;;;;;10.53;81.90;101975.09;10262710;28;20040;-68
2021/10/17 20:33:49;;;;;;;20.13;11.57;;;;;;;10.52;81.29;101973.47;10233326;28;20572;-68
2021/10/17 20:44:01;;;;;;;23.25;10.60;;;;;;;10.60;83.04;101985.72;10247626;28;20499;-70
2021/10/17 20:48:58;;;;;;;18.40;10.88;;;;;;;10.62;83.41;101978.84;10256123;28;20049;-69
2021/10/17 20:53:54;;;;;;;19.70;11.60;;;;;;;10.66;83.79;101968.97;10254481;28;20523;-69
2021/10/17 20:58:51;;;;;;;20.80;11.65;;;;;;;10.68;83.11;101974.97;10266663;28;20099;-69
2021/10/17 21:03:47;;;;;;;21.50;12.88;;;;;;;10.69;83.10;101970.31;10258494;28;20079;-69
2021/10/17 21:08:44;;;;;;;20.08;11.75;;;;;;;10.73;83.64;101974.91;10244452;28;20075;-70
2021/10/17 21:13:41;;;;;;;22.92;13.15;;;;;;;10.66;85.32;101973.63;10256683;28;20037;-69
2021/10/17 21:18:38;;;;;;;20.33;12.45;;;;;;;10.67;84.67;101959.63;10259311;28;20533;-68
2021/10/17 21:23:35;;;;;;;19.00;13.23;;;;;;;10.67;85.16;101965.13;10257712;28;20582;-72
2021/10/17 21:28:32;;;;;;;24.13;12.05;;;;;;;10.65;86.15;101970.09;10264011;28;20045;-70
2021/10/17 21:33:29;;;;;;;28.45;11.93;;;;;;;10.68;85.96;101972.22;10252864;28;20069;-71
2021/10/17 21:38:25;;;;;;;17.80;11.80;;;;;;;10.70;85.58;101970.03;10250412;28;20053;-69
2021/10/17 21:43:22;;;;;;;20.70;13.10;;;;;;;10.73;85.09;101974.09;10257428;28;20473;-70
2021/10/17 21:48:19;;;;;;;23.63;13.68;;;;;;;10.74;84.87;101976.56;10266488;28;20046;-70
2021/10/17 21:53:16;;;;;;;21.08;12.63;;;;;;;10.75;85.68;101980.09;10260423;28;20136;-71
2021/10/17 21:58:13;;;;;;;22.33;12.65;;;;;;;10.75;85.41;101982.84;10269226;28;20096;-70
2021/10/17 22:03:14;;;;;;;25.65;12.13;;;;;;;10.75;85.01;101985.56;10250100;28;20561;-69
2021/10/17 22:08:10;;;;;;;18.30;10.88;;;;;;;10.81;83.43;101987.13;10251885;28;20564;-70
2021/10/17 22:13:07;;;;;;;21.40;11.85;;;;;;;10.82;82.06;101979.78;10252436;28;20048;-69
2021/10/17 22:18:04;;;;;;;18.50;11.27;;;;;;;10.81;81.75;101978.13;10261628;28;20041;-69
2021/10/17 22:23:01;;;;;;;23.38;11.85;;;;;;;10.78;79.98;101975.97;10260346;28;20067;-70
2021/10/17 22:27:58;;;;;;;21.10;10.25;;;;;;;10.74;80.92;101970.25;10256096;28;20073;-70
2021/10/17 22:32:54;;;;;;;21.08;10.80;;;;;;;10.70;78.48;101975.50;10253985;28;20644;-70
2021/10/17 22:37:51;;;;;;;20.20;11.10;;;;;;;10.76;78.53;101972.72;10250181;28;20071;-70
2021/10/17 22:42:47;;;;;;;17.00;9.32;;;;;;;10.78;76.62;101975.97;10237289;28;20104;-71